Sheldon Springs, Vermont
Current Conditions -  °F | °C
As of 2:15 PM on Sunday 23 Nov 2014 (Local Time) from KFSO Reporting Station
Overcast Overcast  
Wind Chill: 45°   Ceiling: 2900
Heat Index: 45°   Visibility: 10mi
Dew Point: 39°   Wind: 3mph
Humidity: 82%   Direction: 180°S
Pressure: 30.05"   Gusts: NA
Location:  44.91°N, 72.98°W
Report Text: KFSO 231915Z AUTO 18003KT 10SM SCT021 BKN029 OVC050 07/04 A3005 RMK AO2 T00700041
Loading
Personal Weather Stations






























Interactive Weather Map New forecast layout! Learn more

10-Day Weather Forecast

Advertisements
Track Severe Weather on mobile